createdAt,value
2017-12-23T00:00:25.889Z,99083.00
2017-12-23T00:00:57.534Z,99088.97
2017-12-23T00:01:29.173Z,99086.83
2017-12-23T00:02:00.815Z,99084.28
2017-12-23T00:02:32.457Z,99074.48
2017-12-23T00:03:04.096Z,99077.88
2017-12-23T00:03:35.762Z,99077.03
2017-12-23T00:04:07.386Z,99073.63
2017-12-23T00:04:39.030Z,99072.35
2017-12-23T00:05:10.671Z,99070.24
2017-12-23T00:05:42.309Z,99073.65
2017-12-23T00:06:13.948Z,99076.19
2017-12-23T00:06:45.592Z,99073.20
2017-12-23T00:07:17.232Z,99073.61
2017-12-23T00:07:48.877Z,99079.14
2017-12-23T00:08:20.539Z,99075.73
2017-12-23T00:08:52.166Z,99077.03
2017-12-23T00:09:23.835Z,99075.75
2017-12-23T00:09:55.459Z,99084.28
2017-12-23T00:10:27.393Z,99076.59
2017-12-23T00:10:59.034Z,99073.63
2017-12-23T00:11:30.676Z,99080.45
2017-12-23T00:12:02.318Z,99071.08
2017-12-23T00:12:33.961Z,99077.03
2017-12-23T00:13:05.599Z,99074.48
2017-12-23T00:13:37.278Z,99071.90
2017-12-23T00:14:08.902Z,99078.30
2017-12-23T00:14:40.534Z,99077.02
2017-12-23T00:15:12.397Z,99070.20
2017-12-23T00:15:44.023Z,99079.14
2017-12-23T00:16:15.761Z,99066.36
2017-12-23T00:16:47.375Z,99068.52
2017-12-23T00:17:19.022Z,99066.39
2017-12-23T00:17:50.662Z,99058.27
2017-12-23T00:18:22.302Z,99062.55
2017-12-23T00:18:53.974Z,99057.87
2017-12-23T00:19:25.603Z,99062.11
2017-12-23T00:19:57.282Z,99061.25
2017-12-23T00:20:28.913Z,99064.66
2017-12-23T00:21:00.539Z,99064.69
2017-12-23T00:21:32.161Z,99069.77
2017-12-23T00:22:03.803Z,99060.84
2017-12-23T00:22:35.441Z,99060.42
2017-12-23T00:23:07.083Z,99070.17
2017-12-23T00:23:38.726Z,99065.92
2017-12-23T00:24:10.368Z,99069.75
2017-12-23T00:24:42.013Z,99065.89
2017-12-23T00:25:13.682Z,99069.76
2017-12-23T00:25:45.310Z,99070.60
2017-12-23T00:26:16.986Z,99071.03
2017-12-23T00:26:48.610Z,99068.92
2017-12-23T00:27:20.237Z,99075.73
2017-12-23T00:27:51.870Z,99077.02
2017-12-23T00:28:23.689Z,99077.45
2017-12-23T00:28:55.318Z,99078.70
2017-12-23T00:29:26.946Z,99073.19
2017-12-23T00:29:58.573Z,99076.16
2017-12-23T00:30:30.193Z,99078.30
2017-12-23T00:31:01.822Z,99072.76
2017-12-23T00:31:33.501Z,99073.19
2017-12-23T00:32:05.723Z,99071.91
2017-12-23T00:32:37.553Z,99060.85
2017-12-23T00:33:09.205Z,99068.94
2017-12-23T00:33:40.848Z,99065.13
2017-12-23T00:34:12.489Z,99067.69
2017-12-23T00:34:44.132Z,99067.25
2017-12-23T00:35:15.774Z,99067.68
2017-12-23T00:35:47.468Z,99068.14
2017-12-23T00:36:19.122Z,99057.48
2017-12-23T00:36:51.010Z,99064.30
2017-12-23T00:37:22.647Z,99054.05
2017-12-23T00:37:54.292Z,99054.05
2017-12-23T00:38:25.935Z,99057.91
2017-12-23T00:38:57.579Z,99060.89
2017-12-23T00:39:29.219Z,99063.44
2017-12-23T00:40:00.887Z,99059.61
2017-12-23T00:40:32.514Z,99060.05
2017-12-23T00:41:04.150Z,99067.72
2017-12-23T00:41:35.787Z,99063.89
2017-12-23T00:42:07.474Z,99060.08
2017-12-23T00:42:39.102Z,99060.91
2017-12-23T00:43:10.731Z,99061.78
2017-12-23T00:43:42.361Z,99063.06
2017-12-23T00:44:13.997Z,99060.93
2017-12-23T00:44:45.640Z,99063.06
2017-12-23T00:45:17.338Z,99061.35
2017-12-23T00:45:48.966Z,99062.64
2017-12-23T00:46:20.590Z,99063.48
2017-12-23T00:46:52.214Z,99061.36
2017-12-23T00:47:23.882Z,99059.66
2017-12-23T00:47:55.506Z,99062.22
2017-12-23T00:48:27.375Z,99054.13
2017-12-23T00:48:59.002Z,99061.80
2017-12-23T00:49:30.629Z,99057.11
2017-12-23T00:50:02.377Z,99058.84
2017-12-23T00:50:34.319Z,99055.00
2017-12-23T00:51:05.962Z,99057.58
2017-12-23T00:51:37.637Z,99064.81
2017-12-23T00:52:09.262Z,99066.50
2017-12-23T00:52:40.894Z,99063.53
2017-12-23T00:53:12.529Z,99060.56
2017-12-23T00:53:44.171Z,99054.59
2017-12-23T00:54:15.813Z,99058.42
2017-12-23T00:54:47.456Z,99058.00
2017-12-23T00:55:19.099Z,99058.45
2017-12-23T00:55:50.740Z,99057.59
2017-12-23T00:56:22.383Z,99058.02
2017-12-23T00:56:54.058Z,99055.47
2017-12-23T00:57:25.678Z,99058.45
2017-12-23T00:57:57.309Z,99055.05
2017-12-23T00:58:28.952Z,99058.45
2017-12-23T00:59:00.590Z,99052.05
2017-12-23T00:59:32.270Z,99050.80
2017-12-23T01:00:03.889Z,99054.22
2017-12-23T01:00:35.519Z,99056.74
2017-12-23T01:01:07.178Z,99054.62
2017-12-23T01:01:38.983Z,99058.02
2017-12-23T01:02:10.606Z,99055.02
2017-12-23T01:02:42.234Z,99059.30
2017-12-23T01:03:13.857Z,99064.41
2017-12-23T01:03:45.479Z,99060.58
2017-12-23T01:04:17.322Z,99063.16
2017-12-23T01:04:48.964Z,99061.42
2017-12-23T01:05:20.604Z,99063.13
2017-12-23T01:05:52.248Z,99068.22
2017-12-23T01:06:23.891Z,99072.91
2017-12-23T01:06:55.532Z,99062.71
2017-12-23T01:07:27.175Z,99070.36
2017-12-23T01:07:58.815Z,99063.55
2017-12-23T01:08:30.767Z,99064.40
2017-12-23T01:09:02.407Z,99063.54
2017-12-23T01:09:34.082Z,99064.84
2017-12-23T01:10:05.710Z,99063.53
2017-12-23T01:10:37.338Z,99067.80
2017-12-23T01:11:08.978Z,99066.55
2017-12-23T01:11:40.618Z,99066.54
2017-12-23T01:12:12.261Z,99069.52
2017-12-23T01:12:43.902Z,99065.26
2017-12-23T01:13:15.542Z,99064.86
2017-12-23T01:13:47.188Z,99062.70
2017-12-23T01:14:18.829Z,99068.67
2017-12-23T01:14:50.472Z,99063.99
2017-12-23T01:15:22.114Z,99061.85
2017-12-23T01:15:53.786Z,99064.41
2017-12-23T01:16:25.410Z,99067.42
2017-12-23T01:16:57.269Z,99065.69
2017-12-23T01:17:28.898Z,99065.27
2017-12-23T01:18:00.566Z,99072.48
2017-12-23T01:18:32.190Z,99061.44
2017-12-23T01:19:03.818Z,99061.86
2017-12-23T01:19:35.558Z,99057.58
2017-12-23T01:20:07.199Z,99065.67
2017-12-23T01:20:38.842Z,99061.81
2017-12-23T01:21:10.484Z,99055.86
2017-12-23T01:21:42.164Z,99057.11
2017-12-23T01:22:13.786Z,99056.25
2017-12-23T01:22:45.656Z,99057.11
2017-12-23T01:23:17.282Z,99064.37
2017-12-23T01:23:48.906Z,99055.44
2017-12-23T01:24:20.645Z,99045.19
2017-12-23T01:24:52.287Z,99049.45
2017-12-23T01:25:23.928Z,99044.34
2017-12-23T01:25:55.570Z,99052.43
2017-12-23T01:26:27.213Z,99044.33
2017-12-23T01:26:58.854Z,99048.17
2017-12-23T01:27:30.498Z,99047.77
2017-12-23T01:28:02.140Z,99046.91
2017-12-23T01:28:33.767Z,99048.61
2017-12-23T01:29:05.423Z,99054.14
2017-12-23T01:29:37.065Z,99046.48
2017-12-23T01:30:08.708Z,99045.23
2017-12-23T01:30:40.349Z,99051.59
2017-12-23T01:31:11.991Z,99046.08
2017-12-23T01:31:43.621Z,99052.47
2017-12-23T01:32:15.297Z,99044.38
2017-12-23T01:32:47.155Z,99045.20
2017-12-23T01:33:18.782Z,99045.66
2017-12-23T01:33:50.414Z,99043.95
2017-12-23T01:34:22.151Z,99044.77
2017-12-23T01:34:53.793Z,99047.33
2017-12-23T01:35:25.438Z,99047.77
2017-12-23T01:35:57.075Z,99045.61
2017-12-23T01:36:28.719Z,99043.48
2017-12-23T01:37:00.669Z,99052.02
2017-12-23T01:37:32.346Z,99043.07
2017-12-23T01:38:03.974Z,99034.53
2017-12-23T01:38:35.602Z,99044.34
2017-12-23T01:39:07.364Z,99046.02
2017-12-23T01:39:38.990Z,99044.76
2017-12-23T01:40:10.829Z,99032.37
2017-12-23T01:40:42.472Z,99034.52
2017-12-23T01:41:14.114Z,99035.38
2017-12-23T01:41:45.755Z,99031.56
2017-12-23T01:42:17.397Z,99028.12
2017-12-23T01:42:49.074Z,99028.55
2017-12-23T01:43:20.717Z,99021.73
2017-12-23T01:43:52.339Z,99018.32
2017-12-23T01:44:24.272Z,99013.22
2017-12-23T01:44:55.912Z,99010.66
2017-12-23T01:45:27.557Z,99017.91
2017-12-23T01:45:59.199Z,99015.32
2017-12-23T01:46:30.839Z,99005.55
2017-12-23T01:47:02.497Z,99008.11
2017-12-23T01:47:34.367Z,99004.25
2017-12-23T01:48:06.035Z,99005.52
2017-12-23T01:48:37.662Z,98999.98
2017-12-23T01:49:09.284Z,98997.43
2017-12-23T01:49:40.906Z,98991.89
2017-12-23T01:50:12.570Z,98991.02
2017-12-23T01:50:44.190Z,98994.42
2017-12-23T01:51:16.833Z,98991.89
2017-12-23T01:51:48.490Z,98985.08
2017-12-23T01:52:20.132Z,98994.05
2017-12-23T01:52:51.771Z,98987.23
2017-12-23T01:53:23.415Z,98987.66
2017-12-23T01:53:55.082Z,98984.25
2017-12-23T01:54:26.709Z,98986.35
2017-12-23T01:54:58.649Z,98984.22
2017-12-23T01:55:30.599Z,98982.95
2017-12-23T01:56:02.240Z,98975.27
2017-12-23T01:56:33.880Z,98978.26
2017-12-23T01:57:05.530Z,98974.88
2017-12-23T01:57:37.167Z,98969.77
2017-12-23T01:58:08.809Z,98972.30
2017-12-23T01:58:40.486Z,98962.52
2017-12-23T01:59:12.114Z,98967.19
2017-12-23T01:59:43.742Z,98960.37
2017-12-23T02:00:15.377Z,98956.53
2017-12-23T02:00:47.015Z,98956.11
2017-12-23T02:01:18.658Z,98955.67
2017-12-23T02:01:50.304Z,98959.09
2017-12-23T02:02:21.945Z,98948.44
2017-12-23T02:02:53.586Z,98943.35
2017-12-23T02:03:25.249Z,98945.48
2017-12-23T02:03:57.177Z,98939.94
2017-12-23T02:04:28.816Z,98950.19
2017-12-23T02:05:00.462Z,98942.10
2017-12-23T02:05:32.103Z,98941.67
2017-12-23T02:06:03.745Z,98938.27
2017-12-23T02:06:35.387Z,98945.05
2017-12-23T02:07:07.029Z,98941.67
2017-12-23T02:07:38.700Z,98944.66
2017-12-23T02:08:10.326Z,98936.11
2017-12-23T02:08:41.946Z,98945.11
2017-12-23T02:09:13.597Z,98937.44
2017-12-23T02:09:45.239Z,98944.67
2017-12-23T02:10:16.880Z,98931.88
2017-12-23T02:10:48.553Z,98934.42
2017-12-23T02:11:20.173Z,98939.14
2017-12-23T02:11:51.926Z,98943.83
2017-12-23T02:12:23.756Z,98943.43
2017-12-23T02:12:55.426Z,98939.59
2017-12-23T02:13:27.050Z,98939.19
2017-12-23T02:13:58.683Z,98946.88
2017-12-23T02:14:30.321Z,98936.20
2017-12-23T02:15:01.964Z,98933.66
2017-12-23T02:15:33.608Z,98942.17
2017-12-23T02:16:05.249Z,98936.63
2017-12-23T02:16:36.927Z,98938.73
2017-12-23T02:17:08.550Z,98938.34
2017-12-23T02:17:40.284Z,98946.43
2017-12-23T02:18:12.126Z,98949.86
2017-12-23T02:18:43.955Z,98946.88
2017-12-23T02:19:15.716Z,98949.01
2017-12-23T02:19:47.358Z,98945.20
2017-12-23T02:20:19.002Z,98949.03
2017-12-23T02:20:50.641Z,98947.76
2017-12-23T02:21:22.283Z,98944.34
2017-12-23T02:21:53.945Z,98949.43
2017-12-23T02:22:25.586Z,98940.91
2017-12-23T02:22:57.214Z,98934.98
2017-12-23T02:23:28.851Z,98940.54
2017-12-23T02:24:00.493Z,98937.11
2017-12-23T02:24:32.136Z,98939.21
2017-12-23T02:25:03.777Z,98940.94
2017-12-23T02:25:35.421Z,98942.64
2017-12-23T02:26:07.086Z,98944.77
2017-12-23T02:26:38.742Z,98947.33
2017-12-23T02:27:10.362Z,98948.15
2017-12-23T02:27:42.229Z,98949.91
2017-12-23T02:28:13.860Z,98947.75
2017-12-23T02:28:45.486Z,98950.75
2017-12-23T02:29:17.220Z,98941.84
2017-12-23T02:29:48.858Z,98940.53
2017-12-23T02:30:20.508Z,98944.39
2017-12-23T02:30:52.179Z,98943.52
2017-12-23T02:31:23.847Z,98940.96
2017-12-23T02:31:55.479Z,98942.27
2017-12-23T02:32:27.109Z,98946.52
2017-12-23T02:32:58.734Z,98946.55
2017-12-23T02:33:30.362Z,98951.65
2017-12-23T02:34:02.040Z,98951.67
2017-12-23T02:34:33.666Z,98948.67
2017-12-23T02:35:05.294Z,98961.02
2017-12-23T02:35:36.921Z,98963.16
2017-12-23T02:36:08.563Z,98963.14
2017-12-23T02:36:40.207Z,98962.72
2017-12-23T02:37:11.849Z,98956.33
2017-12-23T02:37:43.490Z,98963.59
2017-12-23T02:38:15.110Z,98968.28
2017-12-23T02:38:46.776Z,98967.42
2017-12-23T02:39:18.458Z,98972.50
2017-12-23T02:39:50.083Z,98975.09
2017-12-23T02:40:21.706Z,98967.00
2017-12-23T02:40:53.341Z,98972.55
2017-12-23T02:41:24.984Z,98973.39
2017-12-23T02:41:56.625Z,98980.63
2017-12-23T02:42:28.265Z,98985.73
2017-12-23T02:42:59.910Z,98975.52
2017-12-23T02:43:31.553Z,98981.88
2017-12-23T02:44:03.193Z,98984.03
2017-12-23T02:44:34.854Z,98977.20
2017-12-23T02:45:06.486Z,98986.57
2017-12-23T02:45:38.353Z,98978.91
2017-12-23T02:46:09.974Z,98981.89
2017-12-23T02:46:41.711Z,98983.59
2017-12-23T02:47:13.353Z,98981.86
2017-12-23T02:47:44.993Z,98977.66
2017-12-23T02:48:16.634Z,98981.45
2017-12-23T02:48:48.278Z,98971.23
2017-12-23T02:49:19.920Z,98967.84
2017-12-23T02:49:51.563Z,98972.09
2017-12-23T02:50:23.204Z,98971.23
2017-12-23T02:50:54.844Z,98966.55
2017-12-23T02:51:26.488Z,98965.70
2017-12-23T02:51:58.114Z,98968.69
2017-12-23T02:52:29.772Z,98967.41
2017-12-23T02:53:01.414Z,98967.83
2017-12-23T02:53:33.079Z,98964.85
2017-12-23T02:54:04.702Z,98965.28
2017-12-23T02:54:36.340Z,98963.59
2017-12-23T02:55:07.983Z,98961.47
2017-12-23T02:55:39.624Z,98960.59
2017-12-23T02:56:11.297Z,98961.89
2017-12-23T02:56:42.923Z,98966.12
2017-12-23T02:57:14.554Z,98961.03
2017-12-23T02:57:46.189Z,98967.42
2017-12-23T02:58:17.833Z,98969.12
2017-12-23T02:58:49.474Z,98969.98
2017-12-23T02:59:21.117Z,98968.70
2017-12-23T02:59:52.760Z,98966.14
2017-12-23T03:00:24.425Z,98964.01
2017-12-23T03:00:56.058Z,98963.58
2017-12-23T03:01:27.993Z,98965.31
2017-12-23T03:01:59.662Z,98963.19
2017-12-23T03:02:31.290Z,98968.29
2017-12-23T03:03:03.153Z,98963.19
2017-12-23T03:03:34.783Z,98962.78
2017-12-23T03:04:06.414Z,98962.34
2017-12-23T03:04:38.151Z,98955.14
2017-12-23T03:05:09.791Z,98954.70
2017-12-23T03:05:41.435Z,98959.36
2017-12-23T03:06:13.077Z,98960.66
2017-12-23T03:06:44.706Z,98958.95
2017-12-23T03:07:16.378Z,98960.20
2017-12-23T03:07:48.240Z,98959.34
2017-12-23T03:08:19.870Z,98960.20
2017-12-23T03:08:51.594Z,98963.58
2017-12-23T03:09:23.235Z,98964.43
2017-12-23T03:09:54.874Z,98966.13
2017-12-23T03:10:26.520Z,98961.47
2017-12-23T03:10:58.161Z,98961.90
2017-12-23T03:11:29.809Z,98966.59
2017-12-23T03:12:01.445Z,98961.91
2017-12-23T03:12:33.130Z,98963.58
2017-12-23T03:13:04.754Z,98963.59
2017-12-23T03:13:36.378Z,98961.89
2017-12-23T03:14:08.013Z,98959.34
2017-12-23T03:14:39.653Z,98959.34
2017-12-23T03:15:11.296Z,98958.45
2017-12-23T03:15:42.935Z,98958.42
2017-12-23T03:16:14.580Z,98953.29
2017-12-23T03:16:46.218Z,98952.02
2017-12-23T03:17:17.863Z,98948.61
2017-12-23T03:17:49.504Z,98954.13
2017-12-23T03:18:21.146Z,98954.52
2017-12-23T03:18:52.766Z,98953.67
2017-12-23T03:19:24.430Z,98948.98
2017-12-23T03:19:56.070Z,98950.24
2017-12-23T03:20:27.713Z,98952.37
2017-12-23T03:20:59.355Z,98948.52
2017-12-23T03:21:30.997Z,98943.41
2017-12-23T03:22:02.644Z,98948.52
2017-12-23T03:22:34.280Z,98950.22
2017-12-23T03:23:05.980Z,98941.69
2017-12-23T03:23:37.605Z,98943.83
2017-12-23T03:24:09.225Z,98940.00
2017-12-23T03:24:40.854Z,98941.25
2017-12-23T03:25:12.491Z,98940.84
2017-12-23T03:25:44.136Z,98935.70
2017-12-23T03:26:15.774Z,98936.13
2017-12-23T03:26:47.416Z,98934.86
2017-12-23T03:27:19.057Z,98923.78
2017-12-23T03:27:50.699Z,98928.89
2017-12-23T03:28:22.340Z,98932.70
2017-12-23T03:28:53.983Z,98931.42
2017-12-23T03:29:25.624Z,98929.27
2017-12-23T03:29:57.269Z,98932.67
2017-12-23T03:30:28.908Z,98931.02
2017-12-23T03:31:00.550Z,98932.70
2017-12-23T03:31:32.192Z,98932.25
2017-12-23T03:32:03.834Z,98937.79
2017-12-23T03:32:35.482Z,98933.52
2017-12-23T03:33:07.431Z,98936.08
2017-12-23T03:33:39.260Z,98936.52
2017-12-23T03:34:11.016Z,98932.25
2017-12-23T03:34:42.657Z,98930.09
2017-12-23T03:35:14.299Z,98930.52
2017-12-23T03:35:45.941Z,98918.56
2017-12-23T03:36:17.580Z,98931.34
2017-12-23T03:36:49.224Z,98933.05
2017-12-23T03:37:20.867Z,98928.82
2017-12-23T03:37:52.508Z,98925.78
2017-12-23T03:38:24.186Z,98920.70
2017-12-23T03:38:55.806Z,98933.05
2017-12-23T03:39:27.439Z,98931.80
2017-12-23T03:39:59.076Z,98926.28
2017-12-23T03:40:30.719Z,98938.22
2017-12-23T03:41:02.358Z,98929.72
2017-12-23T03:41:34.001Z,98930.55
2017-12-23T03:42:05.643Z,98928.87
2017-12-23T03:42:37.286Z,98922.08
2017-12-23T03:43:08.927Z,98925.91
2017-12-23T03:43:40.590Z,98928.89
2017-12-23T03:44:12.455Z,98934.41
2017-12-23T03:44:44.086Z,98929.75
2017-12-23T03:45:15.710Z,98928.86
2017-12-23T03:45:47.444Z,98925.91
2017-12-23T03:46:19.086Z,98924.20
2017-12-23T03:46:50.758Z,98924.61
2017-12-23T03:47:22.382Z,98923.36
2017-12-23T03:47:54.243Z,98921.65
2017-12-23T03:48:25.866Z,98915.31
2017-12-23T03:48:57.602Z,98915.74
2017-12-23T03:49:29.243Z,98912.33
2017-12-23T03:50:00.884Z,98912.76
2017-12-23T03:50:32.528Z,98904.66
2017-12-23T03:51:04.173Z,98910.23
2017-12-23T03:51:35.810Z,98901.26
2017-12-23T03:52:07.458Z,98889.30
2017-12-23T03:52:39.139Z,98892.70
2017-12-23T03:53:10.766Z,98900.41
2017-12-23T03:53:42.389Z,98898.72
2017-12-23T03:54:14.018Z,98902.11
2017-12-23T03:54:45.658Z,98908.50
2017-12-23T03:55:17.302Z,98905.52
2017-12-23T03:55:48.966Z,98899.55
2017-12-23T03:56:20.594Z,98911.48
2017-12-23T03:56:52.227Z,98908.09
2017-12-23T03:57:23.869Z,98917.89
2017-12-23T03:57:55.511Z,98911.92
2017-12-23T03:58:27.174Z,98909.83
2017-12-23T03:58:58.802Z,98909.83
2017-12-23T03:59:30.436Z,98919.63
2017-12-23T04:00:02.103Z,98914.52
2017-12-23T04:00:33.731Z,98917.92
2017-12-23T04:01:05.366Z,98918.77
2017-12-23T04:01:37.002Z,98918.34
2017-12-23T04:02:08.645Z,98919.63
2017-12-23T04:02:40.286Z,98924.31
2017-12-23T04:03:11.926Z,98918.37
2017-12-23T04:03:43.568Z,98908.58
2017-12-23T04:04:15.213Z,98914.08
2017-12-23T04:04:46.855Z,98920.50
2017-12-23T04:05:18.531Z,98915.81
2017-12-23T04:05:50.155Z,98906.88
2017-12-23T04:06:21.786Z,98909.42
2017-12-23T04:06:53.421Z,98911.55
2017-12-23T04:07:25.091Z,98902.19
2017-12-23T04:07:56.718Z,98895.83
2017-12-23T04:08:28.347Z,98906.89
2017-12-23T04:08:59.988Z,98898.83
2017-12-23T04:09:31.630Z,98905.22
2017-12-23T04:10:03.297Z,98898.83
2017-12-23T04:10:34.923Z,98898.83
2017-12-23T04:11:06.556Z,98893.72
2017-12-23T04:11:38.197Z,98893.29
2017-12-23T04:12:09.839Z,98889.03
2017-12-23T04:12:41.502Z,98892.02
2017-12-23T04:13:13.130Z,98894.17
2017-12-23T04:13:44.765Z,98889.06
2017-12-23T04:14:16.407Z,98890.76
2017-12-23T04:14:48.075Z,98894.59
2017-12-23T04:15:19.703Z,98883.95
2017-12-23T04:15:51.607Z,98884.83
2017-12-23T04:16:23.588Z,98883.13
2017-12-23T04:16:55.230Z,98882.70
2017-12-23T04:17:26.869Z,98879.72
2017-12-23T04:17:58.514Z,98882.69
2017-12-23T04:18:30.153Z,98880.98
2017-12-23T04:19:01.797Z,98889.08
2017-12-23T04:19:33.439Z,98883.09
2017-12-23T04:20:05.078Z,98888.62
2017-12-23T04:20:36.758Z,98888.23
2017-12-23T04:21:08.386Z,98885.67
2017-12-23T04:21:40.017Z,98879.70
2017-12-23T04:22:11.884Z,98889.08
2017-12-23T04:22:43.510Z,98887.38
2017-12-23T04:23:15.238Z,98889.50
2017-12-23T04:23:46.880Z,98893.78
2017-12-23T04:24:18.522Z,98887.79
2017-12-23T04:24:50.163Z,98892.08
2017-12-23T04:25:21.805Z,98889.95
2017-12-23T04:25:53.469Z,98888.22
2017-12-23T04:26:25.094Z,98889.94
2017-12-23T04:26:56.731Z,98897.19
2017-12-23T04:27:28.372Z,98894.63
2017-12-23T04:28:00.014Z,98897.20
2017-12-23T04:28:31.656Z,98894.23
2017-12-23T04:29:04.221Z,98893.83
2017-12-23T04:29:35.861Z,98898.94
2017-12-23T04:30:07.509Z,98898.08
2017-12-23T04:30:39.178Z,98904.44
2017-12-23T04:31:10.810Z,98902.34
2017-12-23T04:31:42.442Z,98897.23
2017-12-23T04:32:14.303Z,98894.70
2017-12-23T04:32:45.927Z,98896.37
2017-12-23T04:33:17.598Z,98902.31
2017-12-23T04:33:49.226Z,98896.79
2017-12-23T04:34:20.850Z,98906.13
2017-12-23T04:34:52.586Z,98895.48
2017-12-23T04:35:24.535Z,98899.29
2017-12-23T04:35:56.176Z,98894.59
2017-12-23T04:36:27.817Z,98890.33
2017-12-23T04:36:59.462Z,98896.30
2017-12-23T04:37:31.102Z,98899.30
2017-12-23T04:38:02.741Z,98900.97
2017-12-23T04:38:34.406Z,98895.05
2017-12-23T04:39:06.334Z,98889.51
2017-12-23T04:39:37.975Z,98889.93
2017-12-23T04:40:09.617Z,98889.93
2017-12-23T04:40:41.256Z,98886.06
2017-12-23T04:41:12.901Z,98889.50
2017-12-23T04:41:44.544Z,98889.47
2017-12-23T04:42:16.184Z,98895.86
2017-12-23T04:42:47.827Z,98890.36
2017-12-23T04:43:19.468Z,98888.23
2017-12-23T04:43:51.138Z,98883.97
2017-12-23T04:44:22.770Z,98883.55
2017-12-23T04:44:54.398Z,98873.30
2017-12-23T04:45:26.035Z,98875.80
2017-12-23T04:45:57.676Z,98875.38
2017-12-23T04:46:29.507Z,98877.48
2017-12-23T04:47:01.268Z,98878.77
2017-12-23T04:47:32.909Z,98887.67
2017-12-23T04:48:04.552Z,98879.96
2017-12-23T04:48:36.222Z,98880.31
2017-12-23T04:49:07.845Z,98879.85
2017-12-23T04:49:39.476Z,98865.80
2017-12-23T04:50:11.116Z,98867.50
2017-12-23T04:50:42.762Z,98867.92
2017-12-23T04:51:14.399Z,98876.47
2017-12-23T04:51:46.041Z,98874.80
2017-12-23T04:52:17.686Z,98880.36
2017-12-23T04:52:49.328Z,98875.67
2017-12-23T04:53:21.277Z,98871.41
2017-12-23T04:53:52.918Z,98871.88
2017-12-23T04:54:24.560Z,98879.96
2017-12-23T04:54:56.202Z,98874.00
2017-12-23T04:55:27.841Z,98879.53
2017-12-23T04:55:59.485Z,98874.48
2017-12-23T04:56:31.125Z,98878.28
2017-12-23T04:57:02.769Z,98876.12
2017-12-23T04:57:34.412Z,98866.78
2017-12-23T04:58:06.050Z,98874.91
2017-12-23T04:58:37.722Z,98879.16
2017-12-23T04:59:09.346Z,98875.33
2017-12-23T04:59:40.981Z,98872.77
2017-12-23T05:00:12.620Z,98874.95
2017-12-23T05:00:44.265Z,98876.60
2017-12-23T05:01:15.925Z,98876.20
2017-12-23T05:01:47.550Z,98866.39
2017-12-23T05:02:19.188Z,98871.92
2017-12-23T05:02:50.830Z,98865.56
2017-12-23T05:03:22.471Z,98870.22
2017-12-23T05:03:54.130Z,98872.34
2017-12-23T05:04:26.025Z,98861.30
2017-12-23T05:04:57.659Z,98863.86
2017-12-23T05:05:29.290Z,98868.97
2017-12-23T05:06:00.909Z,98854.06
2017-12-23T05:06:32.535Z,98855.34
2017-12-23T05:07:04.271Z,98857.05
2017-12-23T05:07:35.913Z,98845.13
2017-12-23T05:08:07.554Z,98848.53
2017-12-23T05:08:39.204Z,98851.50
2017-12-23T05:09:10.839Z,98854.09
2017-12-23T05:09:42.478Z,98847.70
2017-12-23T05:10:14.123Z,98847.67
2017-12-23T05:10:45.762Z,98840.92
2017-12-23T05:11:17.429Z,98841.31
2017-12-23T05:11:49.054Z,98843.87
2017-12-23T05:12:20.875Z,98839.19
2017-12-23T05:12:52.506Z,98841.73
2017-12-23T05:13:24.133Z,98844.29
2017-12-23T05:13:55.759Z,98837.51
2017-12-23T05:14:27.422Z,98836.66
2017-12-23T05:14:59.050Z,98832.37
2017-12-23T05:15:30.683Z,98834.95
2017-12-23T05:16:02.310Z,98828.99
2017-12-23T05:16:33.933Z,98825.61
2017-12-23T05:17:05.772Z,98826.43
2017-12-23T05:17:37.445Z,98818.80
2017-12-23T05:18:09.072Z,98824.34
2017-12-23T05:18:40.937Z,98829.45
2017-12-23T05:19:12.566Z,98821.36
2017-12-23T05:19:44.198Z,98827.74
2017-12-23T05:20:15.931Z,98827.77
2017-12-23T05:20:47.573Z,98827.34
2017-12-23T05:21:19.213Z,98830.29
2017-12-23T05:21:50.853Z,98831.17
2017-12-23T05:22:22.497Z,98836.28
2017-12-23T05:22:54.175Z,98835.45
2017-12-23T05:23:25.797Z,98837.13
2017-12-23T05:23:57.730Z,98842.69
2017-12-23T05:24:29.380Z,98838.43
2017-12-23T05:25:01.014Z,98845.64
2017-12-23T05:25:32.653Z,98846.97
2017-12-23T05:26:04.298Z,98836.72
2017-12-23T05:26:35.938Z,98844.41
2017-12-23T05:27:07.579Z,98838.88
2017-12-23T05:27:39.530Z,98847.39
2017-12-23T05:28:11.171Z,98845.69
2017-12-23T05:28:42.812Z,98848.25
2017-12-23T05:29:14.479Z,98862.30
2017-12-23T05:29:46.155Z,98855.06
2017-12-23T05:30:17.774Z,98857.61
2017-12-23T05:30:49.394Z,98860.62
2017-12-23T05:31:21.330Z,98855.54
2017-12-23T05:31:52.976Z,98848.30
2017-12-23T05:32:24.613Z,98847.42
2017-12-23T05:32:56.252Z,98854.23
2017-12-23T05:33:27.895Z,98852.11
2017-12-23T05:33:59.539Z,98853.35
2017-12-23T05:34:31.180Z,98848.70
2017-12-23T05:35:02.850Z,98853.38
2017-12-23T05:35:34.478Z,98847.42
2017-12-23T05:36:06.302Z,98849.58
2017-12-23T05:36:38.056Z,98851.28
2017-12-23T05:37:09.698Z,98847.02
2017-12-23T05:37:41.339Z,98844.47
2017-12-23T05:38:12.980Z,98854.26
2017-12-23T05:38:44.624Z,98841.51
2017-12-23T05:39:16.264Z,98847.05
2017-12-23T05:39:47.906Z,98846.62
2017-12-23T05:40:19.547Z,98844.03
2017-12-23T05:40:51.223Z,98843.20
2017-12-23T05:41:22.855Z,98844.47
2017-12-23T05:41:54.486Z,98840.21
2017-12-23T05:42:26.422Z,98840.21
2017-12-23T05:42:58.064Z,98841.03
2017-12-23T05:43:29.742Z,98838.05
2017-12-23T05:44:01.372Z,98840.19
2017-12-23T05:44:32.999Z,98838.94
2017-12-23T05:45:04.633Z,98843.20
2017-12-23T05:45:36.271Z,98840.19
2017-12-23T05:46:07.916Z,98836.34
2017-12-23T05:46:39.557Z,98845.72
2017-12-23T05:47:11.201Z,98843.16
2017-12-23T05:47:42.838Z,98844.88
2017-12-23T05:48:14.482Z,98840.19
2017-12-23T05:48:46.161Z,98840.98
2017-12-23T05:49:17.782Z,98845.66
2017-12-23T05:49:49.414Z,98840.16
2017-12-23T05:50:21.035Z,98839.31
2017-12-23T05:50:52.692Z,98836.33
2017-12-23T05:51:24.333Z,98841.86
2017-12-23T05:51:55.978Z,98840.98
2017-12-23T05:52:27.618Z,98836.75
2017-12-23T05:52:59.262Z,98832.07
2017-12-23T05:53:30.901Z,98833.34
2017-12-23T05:54:02.570Z,98833.78
2017-12-23T05:54:34.194Z,98831.64
2017-12-23T05:55:05.945Z,98832.06
2017-12-23T05:55:37.776Z,98831.22
2017-12-23T05:56:09.418Z,98831.22
2017-12-23T05:56:41.057Z,98825.69
2017-12-23T05:57:12.700Z,98823.56
2017-12-23T05:57:44.343Z,98815.44
2017-12-23T05:58:15.985Z,98815.02
2017-12-23T05:58:47.623Z,98819.67
2017-12-23T05:59:19.299Z,98818.39
2017-12-23T05:59:50.922Z,98823.92
2017-12-23T06:00:22.859Z,98809.03
2017-12-23T06:00:54.539Z,98814.14
2017-12-23T06:01:26.170Z,98809.45
2017-12-23T06:01:57.799Z,98808.98
2017-12-23T06:02:29.672Z,98811.56
2017-12-23T06:03:01.291Z,98805.14
2017-12-23T06:03:33.019Z,98811.10
2017-12-23T06:04:04.660Z,98811.11
2017-12-23T06:04:36.302Z,98803.87
2017-12-23T06:05:07.944Z,98807.73
2017-12-23T06:05:39.586Z,98805.63
2017-12-23T06:06:11.259Z,98805.59
2017-12-23T06:06:42.886Z,98800.48
2017-12-23T06:07:14.783Z,98800.52
2017-12-23T06:07:46.409Z,98802.62
2017-12-23T06:08:18.035Z,98794.50
2017-12-23T06:08:49.658Z,98799.63
2017-12-23T06:09:21.386Z,98801.73
2017-12-23T06:09:53.028Z,98800.03
2017-12-23T06:10:24.669Z,98796.99
2017-12-23T06:10:56.335Z,98790.18
2017-12-23T06:11:27.958Z,98794.02
2017-12-23T06:11:59.596Z,98793.56